createdAt,value
2015-10-16T00:00:28.886Z,7.3
2015-10-16T00:01:28.842Z,7.3
2015-10-16T00:02:28.783Z,7.3
2015-10-16T00:03:28.738Z,7.3
2015-10-16T00:04:28.678Z,7.2
2015-10-16T00:05:28.619Z,7.2
2015-10-16T00:06:28.575Z,7.2
2015-10-16T00:07:28.515Z,7.2
2015-10-16T00:08:28.453Z,7.2
2015-10-16T00:09:28.392Z,7.2
2015-10-16T00:10:28.349Z,7.2
2015-10-16T00:11:28.289Z,7.1
2015-10-16T00:12:28.244Z,7.1
2015-10-16T00:13:28.185Z,7.1
2015-10-16T00:14:28.124Z,7.1
2015-10-16T00:15:28.081Z,7.1
2015-10-16T00:16:28.021Z,7.2
2015-10-16T00:17:27.961Z,7.2
2015-10-16T00:18:27.902Z,7.2
2015-10-16T00:19:27.857Z,7.1
2015-10-16T00:20:27.797Z,7.1
2015-10-16T00:21:27.738Z,7.1
2015-10-16T00:22:27.694Z,7.1
2015-10-16T00:23:27.634Z,7.2
2015-10-16T00:24:27.574Z,7.2
2015-10-16T00:25:27.530Z,7.2
2015-10-16T00:26:27.470Z,7.2
2015-10-16T00:27:27.426Z,7.2
2015-10-16T00:28:27.365Z,7.3
2015-10-16T00:29:27.307Z,7.2
2015-10-16T00:30:27.246Z,7.2
2015-10-16T00:31:27.202Z,7.3
2015-10-16T00:32:27.142Z,7.3
2015-10-16T00:33:27.082Z,7.2
2015-10-16T00:34:27.039Z,7.3
2015-10-16T00:35:26.979Z,7.3
2015-10-16T00:36:26.919Z,7.2
2015-10-16T00:37:26.875Z,7.2
2015-10-16T00:38:26.815Z,7.2
2015-10-16T00:39:26.755Z,7.2
2015-10-16T00:40:26.711Z,7.2
2015-10-16T00:41:26.655Z,7.2
2015-10-16T00:42:26.596Z,7.1
2015-10-16T00:43:26.551Z,7.1
2015-10-16T00:44:26.491Z,7.2
2015-10-16T00:45:26.447Z,7.2
2015-10-16T00:46:26.388Z,7.2
2015-10-16T00:47:26.328Z,7.2
2015-10-16T00:48:26.284Z,7.2
2015-10-16T00:49:26.208Z,7.3
2015-10-16T00:50:26.164Z,7.3
2015-10-16T00:51:26.104Z,7.3
2015-10-16T00:52:26.060Z,7.3
2015-10-16T00:53:26.001Z,7.3
2015-10-16T00:54:25.940Z,7.3
2015-10-16T00:55:25.896Z,7.3
2015-10-16T00:56:25.837Z,7.2
2015-10-16T00:57:25.792Z,7.3
2015-10-16T00:58:25.732Z,7.3
2015-10-16T00:59:25.673Z,7.3
2015-10-16T01:00:25.629Z,7.3
2015-10-16T01:01:25.570Z,7.3
2015-10-16T01:02:25.509Z,7.2
2015-10-16T01:03:25.450Z,7.1
2015-10-16T01:04:25.390Z,7.1
2015-10-16T01:05:25.381Z,7.2
2015-10-16T01:06:25.290Z,7.2
2015-10-16T01:07:25.245Z,7.2
2015-10-16T01:08:25.186Z,7.2
2015-10-16T01:09:25.113Z,7.2
2015-10-16T01:10:25.069Z,7.1
2015-10-16T01:11:25.010Z,7.1
2015-10-16T01:12:24.966Z,7.2
2015-10-16T01:13:24.905Z,7.1
2015-10-16T01:14:24.846Z,7.1
2015-10-16T01:15:24.802Z,7.1
2015-10-16T01:16:24.741Z,7.1
2015-10-16T01:17:24.694Z,7.1
2015-10-16T01:18:30.900Z,7.1
2015-10-16T01:19:24.590Z,7.1
2015-10-16T01:20:24.530Z,7.1
2015-10-16T01:21:24.470Z,7.2
2015-10-16T01:22:24.425Z,7.2
2015-10-16T01:23:24.366Z,7.2
2015-10-16T01:24:24.306Z,7.3
2015-10-16T01:25:24.262Z,7.3
2015-10-16T01:26:24.199Z,7.2
2015-10-16T01:27:24.155Z,7.2
2015-10-16T01:28:24.096Z,7.2
2015-10-16T01:29:24.036Z,7.2
2015-10-16T01:30:23.992Z,7.1
2015-10-16T01:31:23.932Z,7.1
2015-10-16T01:32:23.872Z,7.2
2015-10-16T01:33:23.813Z,7.1
2015-10-16T01:34:23.768Z,7.1
2015-10-16T01:35:23.708Z,7.2
2015-10-16T01:36:23.649Z,7.2
2015-10-16T01:37:23.605Z,7.2
2015-10-16T01:38:23.545Z,7.2
2015-10-16T01:39:23.485Z,7.2
2015-10-16T01:40:23.441Z,7.2
2015-10-16T01:41:23.382Z,7.2
2015-10-16T01:42:23.338Z,7.2
2015-10-16T01:43:23.277Z,7.2
2015-10-16T01:44:23.218Z,7.2
2015-10-16T01:45:23.173Z,7.3
2015-10-16T01:46:23.113Z,7.2
2015-10-16T01:47:23.069Z,7.2
2015-10-16T01:48:22.994Z,7.2
2015-10-16T01:49:22.950Z,7.2
2015-10-16T01:50:22.906Z,7.2
2015-10-16T01:51:22.850Z,7.2
2015-10-16T01:52:22.791Z,7.2
2015-10-16T01:53:22.731Z,7.2
2015-10-16T01:54:22.687Z,7.1
2015-10-16T01:55:22.627Z,7.2
2015-10-16T01:56:22.598Z,7.2
2015-10-16T01:57:22.508Z,7.2
2015-10-16T01:58:22.464Z,7.1
2015-10-16T01:59:22.404Z,7.1
2015-10-16T02:00:22.344Z,7.2
2015-10-16T02:01:22.300Z,7.2
2015-10-16T02:02:22.239Z,7.2
2015-10-16T02:03:22.180Z,7.1
2015-10-16T02:04:22.120Z,7.1
2015-10-16T02:05:22.077Z,7.1
2015-10-16T02:06:22.016Z,7.2
2015-10-16T02:07:21.972Z,7.2
2015-10-16T02:08:21.913Z,7.1
2015-10-16T02:09:21.869Z,7.1
2015-10-16T02:10:21.794Z,7.1
2015-10-16T02:11:21.749Z,7.2
2015-10-16T02:12:21.705Z,7.2
2015-10-16T02:13:21.645Z,7.2
2015-10-16T02:14:21.585Z,7.3
2015-10-16T02:15:21.541Z,7.3
2015-10-16T02:16:21.481Z,7.3
2015-10-16T02:17:21.422Z,7.3
2015-10-16T02:18:21.378Z,7.3
2015-10-16T02:19:21.318Z,7.3
2015-10-16T02:20:21.258Z,7.3
2015-10-16T02:21:21.213Z,7.3
2015-10-16T02:22:21.154Z,7.3
2015-10-16T02:23:21.094Z,7.3
2015-10-16T02:24:21.049Z,7.3
2015-10-16T02:25:20.990Z,7.3
2015-10-16T02:26:20.930Z,7.4
2015-10-16T02:27:20.871Z,7.3
2015-10-16T02:28:20.827Z,7.3
2015-10-16T02:29:20.767Z,7.4
2015-10-16T02:30:20.723Z,7.4
2015-10-16T02:31:20.663Z,7.3
2015-10-16T02:32:20.618Z,7.3
2015-10-16T02:33:20.543Z,7.3
2015-10-16T02:34:20.499Z,7.3
2015-10-16T02:35:20.440Z,7.3
2015-10-16T02:36:20.395Z,7.2
2015-10-16T02:37:20.334Z,7.3
2015-10-16T02:38:20.276Z,7.3
2015-10-16T02:39:20.231Z,7.3
2015-10-16T02:40:20.172Z,7.3
2015-10-16T02:41:20.112Z,7.3
2015-10-16T02:42:20.068Z,7.3
2015-10-16T02:43:20.008Z,7.3
2015-10-16T02:44:19.947Z,7.3
2015-10-16T02:45:19.903Z,7.2
2015-10-16T02:46:19.844Z,7.2
2015-10-16T02:47:19.781Z,7.2
2015-10-16T02:48:19.737Z,7.2
2015-10-16T02:49:19.678Z,7.2
2015-10-16T02:50:19.618Z,7.2
2015-10-16T02:51:19.558Z,7.3
2015-10-16T02:52:19.514Z,7.2
2015-10-16T02:53:19.454Z,7.2
2015-10-16T02:54:19.394Z,7.2
2015-10-16T02:55:19.350Z,7.2
2015-10-16T02:56:19.305Z,7.3
2015-10-16T02:57:19.230Z,7.3
2015-10-16T02:58:19.171Z,7.4
2015-10-16T02:59:19.127Z,7.4
2015-10-16T03:00:19.067Z,7.4
2015-10-16T03:01:19.023Z,7.3
2015-10-16T03:02:18.963Z,7.3
2015-10-16T03:03:18.902Z,7.2
2015-10-16T03:04:18.859Z,7.3
2015-10-16T03:05:18.799Z,7.3
2015-10-16T03:06:18.755Z,7.3
2015-10-16T03:07:18.695Z,7.2
2015-10-16T03:08:18.635Z,7.3
2015-10-16T03:09:18.576Z,7.3
2015-10-16T03:11:18.487Z,7.4
2015-10-16T03:13:18.712Z,7.3
2015-10-16T03:14:19.137Z,7.2
2015-10-16T03:16:18.220Z,7.2
2015-10-16T03:17:18.159Z,7.2
2015-10-16T03:18:18.101Z,7.2
2015-10-16T03:19:18.056Z,7.2
2015-10-16T03:20:18.090Z,7.1
2015-10-16T03:21:17.951Z,7.1
2015-10-16T03:22:17.892Z,7.1
2015-10-16T03:23:17.848Z,7.1
2015-10-16T03:24:17.789Z,7.1
2015-10-16T03:25:17.728Z,7.1
2015-10-16T03:27:17.625Z,7.1
2015-10-16T03:28:17.565Z,7.1
2015-10-16T03:29:17.740Z,7.1
2015-10-16T03:30:17.539Z,7.2
2015-10-16T03:31:17.714Z,7.1
2015-10-16T03:32:17.716Z,7.2
2015-10-16T03:33:20.844Z,7.2
2015-10-16T03:34:17.722Z,7.2
2015-10-16T03:37:17.105Z,7.2
2015-10-16T03:39:17.970Z,7.1
2015-10-16T03:41:16.913Z,7.1
2015-10-16T03:42:16.852Z,7.1
2015-10-16T03:43:16.808Z,7.2
2015-10-16T03:44:16.749Z,7.2
2015-10-16T03:46:17.614Z,7.1
2015-10-16T03:47:17.477Z,7.1
2015-10-16T03:48:17.275Z,7.1
2015-10-16T03:49:16.482Z,7.2
2015-10-16T03:50:16.421Z,7.2
2015-10-16T03:51:16.862Z,7.2
2015-10-16T03:52:17.443Z,7.2
2015-10-16T03:53:16.446Z,7.2
2015-10-16T03:55:17.185Z,7.2
2015-10-16T03:56:16.110Z,7.2
2015-10-16T03:57:16.065Z,7.2
2015-10-16T03:58:16.006Z,7.3
2015-10-16T03:59:16.384Z,7.2
2015-10-16T04:06:15.590Z,7.3
2015-10-16T04:07:15.748Z,7.2
2015-10-16T04:08:15.893Z,7.2
2015-10-16T04:09:15.442Z,7.2
2015-10-16T04:10:15.382Z,7.3
2015-10-16T04:11:15.309Z,7.3
2015-10-16T04:12:15.264Z,7.2
2015-10-16T04:13:15.205Z,7.2
2015-10-16T04:14:15.161Z,7.2
2015-10-16T04:15:15.100Z,7.2
2015-10-16T04:16:15.041Z,7.1
2015-10-16T04:17:14.981Z,7.1
2015-10-16T04:18:14.937Z,7.1
2015-10-16T04:19:14.877Z,7.1
2015-10-16T04:20:14.833Z,7.1
2015-10-16T04:21:14.774Z,7.1
2015-10-16T04:22:14.714Z,7.1
2015-10-16T04:23:14.654Z,7.1
2015-10-16T04:24:14.610Z,7.1
2015-10-16T04:25:14.550Z,7.1
2015-10-16T04:26:14.491Z,7.1
2015-10-16T04:27:14.446Z,7.2
2015-10-16T04:28:14.402Z,7.2
2015-10-16T04:29:14.327Z,7.1
2015-10-16T04:30:14.282Z,7.1
2015-10-16T04:31:14.238Z,7.2
2015-10-16T04:32:14.179Z,7.2
2015-10-16T04:33:14.119Z,7.2
2015-10-16T04:34:14.075Z,7.2
2015-10-16T04:35:14.000Z,7.2
2015-10-16T04:36:13.954Z,7.2
2015-10-16T04:37:13.895Z,7.1
2015-10-16T04:38:13.835Z,7.1
2015-10-16T04:39:13.776Z,7.1
2015-10-16T04:40:13.732Z,7.1
2015-10-16T04:41:13.672Z,7.1
2015-10-16T04:42:13.627Z,7.1
2015-10-16T04:43:13.568Z,7.1
2015-10-16T04:44:13.524Z,7.1
2015-10-16T04:45:13.464Z,7.1
2015-10-16T04:46:13.404Z,7.1
2015-10-16T04:47:13.345Z,7.1
2015-10-16T04:48:13.301Z,7.1
2015-10-16T04:49:13.241Z,7.1
2015-10-16T04:50:13.181Z,7.1
2015-10-16T04:51:13.121Z,7.1
2015-10-16T04:52:13.076Z,7.2
2015-10-16T04:53:13.017Z,7.2
2015-10-16T04:54:12.973Z,7.2
2015-10-16T04:55:12.912Z,7.1
2015-10-16T04:56:12.869Z,7.1
2015-10-16T04:57:12.809Z,7.2
2015-10-16T04:58:12.749Z,7.2
2015-10-16T04:59:12.705Z,7.3
2015-10-16T05:00:12.645Z,7.2
2015-10-16T05:01:12.586Z,7.2
2015-10-16T05:02:12.526Z,7.2
2015-10-16T05:03:12.481Z,7.2
2015-10-16T05:04:12.422Z,7.2
2015-10-16T05:05:12.362Z,7.1
2015-10-16T05:06:12.318Z,7.1
2015-10-16T05:07:12.275Z,7.1
2015-10-16T05:08:12.198Z,7.1
2015-10-16T05:09:12.155Z,7.1
2015-10-16T05:10:12.095Z,7.1
2015-10-16T05:11:12.035Z,7.1
2015-10-16T05:12:11.991Z,7.1
2015-10-16T05:13:11.930Z,7.1
2015-10-16T05:14:11.886Z,7.1
2015-10-16T05:15:11.827Z,7
2015-10-16T05:16:11.767Z,7
2015-10-16T05:17:11.785Z,7.1
2015-10-16T05:18:11.664Z,7.1
2015-10-16T05:19:11.619Z,7.1
2015-10-16T05:20:11.559Z,7.1
2015-10-16T05:21:11.499Z,7.1
2015-10-16T05:22:11.440Z,7.1
2015-10-16T05:23:11.380Z,7.1
2015-10-16T05:24:11.336Z,7.1
2015-10-16T05:25:11.276Z,7.1
2015-10-16T05:26:11.232Z,7.2
2015-10-16T05:27:11.171Z,7.1
2015-10-16T05:28:11.221Z,7.1
2015-10-16T05:29:11.068Z,7.1
2015-10-16T05:30:11.008Z,7.1
2015-10-16T05:31:10.946Z,7.1
2015-10-16T05:32:10.885Z,7.1
2015-10-16T05:33:10.842Z,7.1
2015-10-16T05:34:10.798Z,7.1
2015-10-16T05:35:10.737Z,7
2015-10-16T05:36:10.725Z,7.1
2015-10-16T05:37:10.618Z,7
2015-10-16T05:38:10.574Z,7
2015-10-16T05:39:10.514Z,7
2015-10-16T05:40:10.454Z,7
2015-10-16T05:41:10.394Z,7
2015-10-16T05:42:10.351Z,7
2015-10-16T05:43:10.307Z,7
2015-10-16T05:44:10.231Z,7.1
2015-10-16T05:45:10.187Z,7
2015-10-16T05:46:10.143Z,7
2015-10-16T05:47:10.067Z,7
2015-10-16T05:48:10.008Z,7
2015-10-16T05:49:09.979Z,7
2015-10-16T05:50:09.903Z,7
2015-10-16T05:51:09.875Z,7
2015-10-16T05:52:09.800Z,6.9
2015-10-16T05:53:09.740Z,7
2015-10-16T05:54:09.695Z,7
2015-10-16T05:55:09.636Z,7
2015-10-16T05:56:09.623Z,7
2015-10-16T05:57:09.533Z,7
2015-10-16T05:58:09.472Z,7
2015-10-16T05:59:09.506Z,7
2015-10-16T06:00:09.383Z,7
2015-10-16T06:01:09.308Z,7
2015-10-16T06:02:09.249Z,7
2015-10-16T06:03:09.188Z,6.9
2015-10-16T06:04:09.144Z,7
2015-10-16T06:05:09.085Z,7
2015-10-16T06:06:09.072Z,7
2015-10-16T06:07:08.997Z,7
2015-10-16T06:08:08.952Z,7
2015-10-16T06:09:08.861Z,7
2015-10-16T06:10:08.817Z,6.9
2015-10-16T06:11:08.757Z,7
2015-10-16T06:12:08.699Z,7
2015-10-16T06:13:08.826Z,7
2015-10-16T06:14:08.594Z,6.9
2015-10-16T06:15:08.535Z,7
2015-10-16T06:16:08.474Z,6.9
2015-10-16T06:17:08.430Z,7
2015-10-16T06:18:08.355Z,7
2015-10-16T06:19:08.311Z,7
2015-10-16T06:20:08.266Z,6.9
2015-10-16T06:21:08.207Z,6.9
2015-10-16T06:22:08.147Z,7
2015-10-16T06:23:08.087Z,7
2015-10-16T06:24:08.027Z,7
2015-10-16T06:25:07.984Z,7
2015-10-16T06:26:07.923Z,7
2015-10-16T06:27:07.864Z,7
2015-10-16T06:28:07.804Z,7
2015-10-16T06:29:07.760Z,7
2015-10-16T06:30:07.715Z,7
2015-10-16T06:31:07.656Z,7
2015-10-16T06:32:07.596Z,7
2015-10-16T06:33:07.614Z,7
2015-10-16T06:34:07.476Z,7
2015-10-16T06:35:07.432Z,6.9
2015-10-16T06:36:07.373Z,7
2015-10-16T06:37:07.328Z,7
2015-10-16T06:38:07.269Z,7
2015-10-16T06:39:07.208Z,7
2015-10-16T06:40:07.149Z,7
2015-10-16T06:41:07.105Z,7
2015-10-16T06:42:07.044Z,7
2015-10-16T06:43:06.985Z,7
2015-10-16T06:44:06.925Z,7.1
2015-10-16T06:45:06.881Z,7
2015-10-16T06:46:06.821Z,7
2015-10-16T06:47:06.762Z,7
2015-10-16T06:48:06.718Z,7
2015-10-16T06:49:06.656Z,7
2015-10-16T06:50:06.595Z,7
2015-10-16T06:51:06.552Z,7
2015-10-16T06:52:06.492Z,7
2015-10-16T06:53:06.432Z,7
2015-10-16T06:54:06.388Z,7
2015-10-16T06:55:06.328Z,7
2015-10-16T06:56:06.361Z,6.9
2015-10-16T06:57:06.208Z,7
2015-10-16T06:58:06.211Z,7
2015-10-16T06:59:06.104Z,7
2015-10-16T07:00:06.044Z,7
2015-10-16T07:01:06.000Z,7
2015-10-16T07:02:05.925Z,7
2015-10-16T07:03:05.896Z,7
2015-10-16T07:04:05.837Z,7
2015-10-16T07:05:05.777Z,7
2015-10-16T07:06:05.718Z,7
2015-10-16T07:07:05.657Z,7
2015-10-16T07:08:05.613Z,6.9
2015-10-16T07:09:05.535Z,6.9
2015-10-16T07:10:05.491Z,6.9
2015-10-16T07:11:05.447Z,6.9
2015-10-16T07:12:05.371Z,7
2015-10-16T07:13:05.326Z,7
2015-10-16T07:14:05.267Z,7
2015-10-16T07:15:05.207Z,7
2015-10-16T07:16:05.162Z,7.1
2015-10-16T07:17:05.096Z,7.1
2015-10-16T07:18:05.024Z,7.1
2015-10-16T07:19:04.969Z,7.1
2015-10-16T07:20:04.896Z,7.1
2015-10-16T07:21:04.826Z,7
2015-10-16T07:22:04.759Z,7.1
2015-10-16T07:23:04.711Z,7.1
2015-10-16T07:24:04.662Z,7.1
2015-10-16T07:25:04.599Z,7.1
2015-10-16T07:26:04.534Z,7.1
2015-10-16T07:27:04.473Z,7.1
2015-10-16T07:28:04.411Z,7.1
2015-10-16T07:29:04.365Z,7.1
2015-10-16T07:30:04.305Z,7.1
2015-10-16T07:31:04.242Z,7.1
2015-10-16T07:32:04.199Z,7.1
2015-10-16T07:33:04.138Z,7.1
2015-10-16T07:34:04.093Z,7.1
2015-10-16T07:35:04.049Z,7.1
2015-10-16T07:36:03.973Z,7.1
2015-10-16T07:37:03.928Z,7.2
2015-10-16T07:38:03.869Z,7.1
2015-10-16T07:39:03.824Z,7.1
2015-10-16T07:40:03.749Z,7.2
2015-10-16T07:41:03.704Z,7.1
2015-10-16T07:42:03.660Z,7.1
2015-10-16T07:43:03.615Z,7.1
2015-10-16T07:44:03.603Z,7.2
2015-10-16T07:45:03.495Z,7.2
2015-10-16T07:47:03.423Z,7.1
2015-10-16T07:48:03.317Z,7.2
2015-10-16T07:49:03.272Z,7.2
2015-10-16T07:50:03.198Z,7.2
2015-10-16T07:51:03.153Z,7.2
2015-10-16T07:52:03.093Z,7.2
2015-10-16T07:53:03.049Z,7.2
2015-10-16T07:54:02.973Z,7.2
2015-10-16T07:55:02.929Z,7.2
2015-10-16T07:56:02.870Z,7.2
2015-10-16T07:57:02.814Z,7.2
2015-10-16T07:58:02.756Z,7.2
2015-10-16T07:59:02.931Z,7.2
2015-10-16T08:00:02.636Z,7.2
2015-10-16T08:01:02.592Z,7.2
2015-10-16T08:02:02.529Z,7.2
2015-10-16T08:03:02.470Z,7.2
2015-10-16T08:04:02.425Z,7.2
2015-10-16T08:05:02.381Z,7.3
2015-10-16T08:06:02.306Z,7.3
2015-10-16T08:07:02.262Z,7.3
2015-10-16T08:08:02.203Z,7.4
2015-10-16T08:09:02.142Z,7.4
2015-10-16T08:10:02.114Z,7.4
2015-10-16T08:11:02.038Z,7.4
2015-10-16T08:12:01.978Z,7.4
2015-10-16T08:13:01.934Z,7.4
2015-10-16T08:14:01.875Z,7.3
2015-10-16T08:15:01.831Z,7.3
2015-10-16T08:16:01.771Z,7.3
2015-10-16T08:17:01.774Z,7.3
2015-10-16T08:18:01.666Z,7.3
2015-10-16T08:19:01.607Z,7.3
2015-10-16T08:20:01.547Z,7.3
2015-10-16T08:21:01.485Z,7.3
2015-10-16T08:22:01.424Z,7.3
2015-10-16T08:23:01.365Z,7.3
2015-10-16T08:24:01.321Z,7.3
2015-10-16T08:25:01.261Z,7.3
2015-10-16T08:26:01.201Z,7.3
2015-10-16T08:27:01.156Z,7.3
2015-10-16T08:28:01.098Z,7.3
2015-10-16T08:29:01.053Z,7.3
2015-10-16T08:30:00.993Z,7.3
2015-10-16T08:31:00.934Z,7.3
2015-10-16T08:32:00.873Z,7.3
2015-10-16T08:34:00.785Z,7.3
2015-10-16T08:35:00.710Z,7.3
2015-10-16T08:36:00.681Z,7.3
2015-10-16T08:37:00.605Z,7.3
2015-10-16T08:38:00.546Z,7.3
2015-10-16T08:39:00.502Z,7.3
2015-10-16T08:40:00.442Z,7.3
2015-10-16T08:41:00.383Z,7.3
2015-10-16T08:42:00.339Z,7.3
2015-10-16T08:43:00.278Z,7.3
2015-10-16T08:44:00.250Z,7.3
2015-10-16T08:45:00.502Z,7.4
2015-10-16T08:46:00.224Z,7.4
2015-10-16T08:47:00.070Z,7.3
2015-10-16T08:48:00.011Z,7.3
2015-10-16T08:48:59.950Z,7.3
2015-10-16T08:49:59.891Z,7.3
2015-10-16T08:50:59.847Z,7.3
2015-10-16T08:51:59.787Z,7.3
2015-10-16T08:52:59.727Z,7.4
2015-10-16T08:53:59.713Z,7.4
2015-10-16T08:54:59.623Z,7.4
2015-10-16T08:55:59.844Z,7.4
2015-10-16T08:56:59.504Z,7.4
2015-10-16T08:57:59.475Z,7.4
2015-10-16T08:58:59.510Z,7.4
2015-10-16T08:59:59.340Z,7.4
2015-10-16T09:00:59.280Z,7.3
2015-10-16T09:02:59.177Z,7.4
2015-10-16T09:03:59.149Z,7.4
2015-10-16T09:04:59.088Z,7.3
2015-10-16T09:05:59.013Z,7.4
2015-10-16T09:06:58.968Z,7.4
2015-10-16T09:07:59.065Z,7.4
2015-10-16T09:08:58.849Z,7.4
2015-10-16T09:09:58.821Z,7.4
2015-10-16T09:10:58.745Z,7.4
2015-10-16T09:11:58.685Z,7.4
2015-10-16T09:12:58.626Z,7.4
2015-10-16T09:13:58.598Z,7.4
2015-10-16T09:14:58.522Z,7.4
2015-10-16T09:15:58.446Z,7.5
2015-10-16T09:16:58.418Z,7.4
2015-10-16T09:17:58.358Z,7.5
2015-10-16T09:18:58.298Z,7.4
2015-10-16T09:19:58.317Z,7.4
2015-10-16T09:20:58.210Z,7.5
2015-10-16T09:21:58.134Z,7.5
2015-10-16T09:22:58.339Z,7.5
2015-10-16T09:23:58.015Z,7.4
2015-10-16T09:24:57.971Z,7.5
2015-10-16T09:25:57.911Z,7.5
2015-10-16T09:26:57.883Z,7.4
2015-10-16T09:27:57.807Z,7.4
2015-10-16T09:28:57.748Z,7.4
2015-10-16T09:29:57.687Z,7.4
2015-10-16T09:30:57.656Z,7.4
2015-10-16T09:31:57.581Z,7.4
2015-10-16T09:32:57.521Z,7.4
2015-10-16T09:33:57.492Z,7.4
2015-10-16T09:34:57.417Z,7.5
2015-10-16T09:35:57.372Z,7.5
2015-10-16T09:36:57.297Z,7.5
2015-10-16T09:37:57.253Z,7.5
2015-10-16T09:38:57.194Z,7.5
2015-10-16T09:39:57.134Z,7.5
2015-10-16T09:40:57.074Z,7.5
2015-10-16T09:41:57.030Z,7.5
2015-10-16T09:42:56.969Z,7.5
2015-10-16T09:43:56.926Z,7.4
2015-10-16T09:44:56.866Z,7.4
2015-10-16T09:45:56.791Z,7.5
2015-10-16T09:46:56.762Z,7.4
2015-10-16T09:47:56.687Z,7.5
2015-10-16T09:48:56.643Z,7.5
2015-10-16T09:49:56.582Z,7.5
2015-10-16T09:50:56.524Z,7.5
2015-10-16T09:51:56.463Z,7.5
2015-10-16T09:52:56.403Z,7.5
2015-10-16T09:53:56.343Z,7.5
2015-10-16T09:54:56.284Z,7.5
2015-10-16T09:55:56.239Z,7.5
2015-10-16T09:56:56.180Z,7.6
2015-10-16T09:57:56.120Z,7.6
2015-10-16T09:58:56.076Z,7.6
2015-10-16T09:59:56.016Z,7.6
2015-10-16T10:00:55.956Z,7.6
2015-10-16T10:01:55.912Z,7.5
2015-10-16T10:02:55.837Z,7.5
2015-10-16T10:03:55.824Z,7.6
2015-10-16T10:04:55.733Z,7.6
2015-10-16T10:05:55.673Z,7.7
2015-10-16T10:06:55.629Z,7.7
2015-10-16T10:07:55.570Z,7.8
2015-10-16T10:08:55.509Z,7.8
2015-10-16T10:09:55.465Z,7.8
2015-10-16T10:10:55.405Z,7.9
2015-10-16T10:11:55.345Z,7.8
2015-10-16T10:12:55.301Z,7.9
2015-10-16T10:13:55.242Z,7.9
2015-10-16T10:14:55.182Z,7.9
2015-10-16T10:15:55.122Z,7.9
2015-10-16T10:16:55.078Z,7.8
2015-10-16T10:17:55.019Z,7.8
2015-10-16T10:18:54.975Z,7.9
2015-10-16T10:19:54.899Z,7.9
2015-10-16T10:20:54.855Z,7.8
2015-10-16T10:21:57.154Z,7.9
2015-10-16T10:22:54.750Z,7.8
2015-10-16T10:23:54.691Z,7.9
2015-10-16T10:24:54.647Z,7.9
2015-10-16T10:25:54.586Z,7.8
2015-10-16T10:26:54.543Z,7.8
2015-10-16T10:27:54.482Z,7.8
2015-10-16T10:28:54.427Z,7.8
2015-10-16T10:29:54.368Z,7.8
2015-10-16T10:30:54.308Z,7.8
2015-10-16T10:31:54.249Z,7.8
2015-10-16T10:32:54.205Z,7.8
2015-10-16T10:33:54.145Z,7.8
2015-10-16T10:34:54.085Z,7.8
2015-10-16T10:35:54.026Z,7.8
2015-10-16T10:36:53.965Z,7.8
2015-10-16T10:37:53.906Z,7.8
2015-10-16T10:38:53.862Z,7.8
2015-10-16T10:39:53.801Z,7.8
2015-10-16T10:40:53.742Z,7.8
2015-10-16T10:41:53.698Z,7.8
2015-10-16T10:42:53.638Z,7.8
2015-10-16T10:43:53.579Z,7.8
2015-10-16T10:44:53.518Z,7.8
2015-10-16T10:45:53.459Z,7.8
2015-10-16T10:46:53.415Z,7.8
2015-10-16T10:47:53.354Z,7.8
2015-10-16T10:48:53.311Z,7.8
2015-10-16T10:49:53.251Z,7.8
2015-10-16T10:50:53.192Z,7.8
2015-10-16T10:51:53.131Z,7.8
2015-10-16T10:52:53.087Z,7.8
2015-10-16T10:53:53.028Z,7.8
2015-10-16T10:54:52.967Z,7.8
2015-10-16T10:55:52.923Z,7.8
2015-10-16T10:56:52.848Z,7.8
2015-10-16T10:57:52.820Z,7.9
2015-10-16T10:58:52.742Z,7.9
2015-10-16T10:59:52.697Z,7.9
2015-10-16T11:00:52.636Z,7.9
2015-10-16T11:01:52.578Z,7.9
2015-10-16T11:02:52.517Z,7.9
2015-10-16T11:03:52.474Z,7.9
2015-10-16T11:04:52.414Z,7.9
2015-10-16T11:05:52.354Z,7.9
2015-10-16T11:06:52.310Z,7.9
2015-10-16T11:07:52.249Z,7.9
2015-10-16T11:08:52.190Z,7.9
2015-10-16T11:09:52.146Z,7.9
2015-10-16T11:10:52.085Z,7.8
2015-10-16T11:11:52.027Z,7.9
2015-10-16T11:12:51.982Z,7.9
2015-10-16T11:13:51.922Z,7.9
2015-10-16T11:14:51.879Z,7.9
2015-10-16T11:15:51.819Z,7.9
2015-10-16T11:16:51.759Z,7.9
2015-10-16T11:17:51.699Z,7.9
2015-10-16T11:18:51.655Z,7.9
2015-10-16T11:19:51.596Z,7.9
2015-10-16T11:20:51.551Z,7.9
2015-10-16T11:21:51.490Z,7.9
2015-10-16T11:22:51.432Z,7.9
2015-10-16T11:23:51.387Z,7.9
2015-10-16T11:24:51.312Z,7.9
2015-10-16T11:25:51.267Z,7.9
2015-10-16T11:26:51.207Z,7.9
2015-10-16T11:27:51.164Z,7.9
2015-10-16T11:28:51.104Z,7.9
2015-10-16T11:29:51.045Z,7.9
2015-10-16T11:30:50.984Z,7.9
2015-10-16T11:31:50.940Z,7.9
2015-10-16T11:32:50.880Z,7.9
2015-10-16T11:33:50.820Z,7.9
2015-10-16T11:34:50.776Z,7.9
2015-10-16T11:35:50.717Z,8
2015-10-16T11:36:50.656Z,8
2015-10-16T11:37:50.612Z,8
2015-10-16T11:38:50.553Z,8.1
2015-10-16T11:39:50.493Z,8
2015-10-16T11:40:50.449Z,8
2015-10-16T11:41:50.389Z,8
2015-10-16T11:42:50.330Z,8
2015-10-16T11:43:50.286Z,8.1
2015-10-16T11:44:50.225Z,8.1
2015-10-16T11:45:50.166Z,8.1
2015-10-16T11:46:50.122Z,8.1
2015-10-16T11:47:50.061Z,8.1
2015-10-16T11:48:50.017Z,8
2015-10-16T11:49:49.958Z,8
2015-10-16T11:50:49.898Z,8
2015-10-16T11:51:49.839Z,8
2015-10-16T11:52:49.794Z,8
2015-10-16T11:53:49.750Z,8
2015-10-16T11:54:49.675Z,8
2015-10-16T11:55:49.646Z,8
2015-10-16T11:56:49.571Z,8
2015-10-16T11:57:49.527Z,8
2015-10-16T11:58:49.466Z,8
2015-10-16T11:59:49.407Z,8
2015-10-16T12:00:49.363Z,8
2015-10-16T12:01:49.303Z,7.9
2015-10-16T12:02:49.243Z,7.9
2015-10-16T12:03:49.199Z,7.9
2015-10-16T12:04:49.140Z,7.9
2015-10-16T12:05:49.080Z,7.9
2015-10-16T12:06:49.035Z,7.9
2015-10-16T12:07:48.976Z,7.9
2015-10-16T12:08:48.916Z,8
2015-10-16T12:09:48.903Z,7.9
2015-10-16T12:10:48.812Z,7.9
2015-10-16T12:11:48.752Z,7.9
2015-10-16T12:12:48.707Z,7.9
2015-10-16T12:13:48.633Z,7.9
2015-10-16T12:14:48.588Z,8
2015-10-16T12:15:48.526Z,7.9
2015-10-16T12:16:48.465Z,7.9
2015-10-16T12:17:48.422Z,8
2015-10-16T12:18:48.362Z,8
2015-10-16T12:19:48.318Z,8
2015-10-16T12:20:48.258Z,7.9
2015-10-16T12:21:48.198Z,7.9
2015-10-16T12:22:48.154Z,8
2015-10-16T12:23:48.095Z,7.9
2015-10-16T12:24:48.035Z,8
2015-10-16T12:25:47.976Z,8
2015-10-16T12:26:47.931Z,8
2015-10-16T12:27:47.887Z,8
2015-10-16T12:28:47.811Z,8
2015-10-16T12:29:47.767Z,8
2015-10-16T12:30:47.708Z,8.1
2015-10-16T12:31:47.664Z,8
2015-10-16T12:32:47.603Z,8.1
2015-10-16T12:33:47.544Z,8.1
2015-10-16T12:34:47.500Z,8.1
2015-10-16T12:35:47.440Z,8
2015-10-16T12:36:47.395Z,8
2015-10-16T12:37:47.320Z,7.9
2015-10-16T12:38:47.276Z,8
2015-10-16T12:39:47.217Z,7.9
2015-10-16T12:40:47.156Z,8
2015-10-16T12:41:47.113Z,8
2015-10-16T12:42:47.052Z,7.9
2015-10-16T12:43:47.009Z,7.9
2015-10-16T12:44:46.949Z,7.9
2015-10-16T12:45:46.889Z,7.9
2015-10-16T12:46:46.830Z,7.9
2015-10-16T12:47:46.786Z,7.9
2015-10-16T12:48:46.725Z,7.9
2015-10-16T12:49:46.666Z,7.9
2015-10-16T12:50:46.606Z,8
2015-10-16T12:51:46.561Z,8
2015-10-16T12:52:46.502Z,8
2015-10-16T12:53:46.441Z,8.1
2015-10-16T12:54:46.398Z,8.1
2015-10-16T12:55:46.338Z,8.1
2015-10-16T12:56:46.279Z,8.1
2015-10-16T12:57:46.234Z,8.1
2015-10-16T12:58:46.174Z,8.1
2015-10-16T12:59:46.115Z,8.2
2015-10-16T13:00:46.055Z,8.1
2015-10-16T13:01:46.010Z,8.1
2015-10-16T13:02:45.951Z,8.1
2015-10-16T13:03:45.906Z,8.1
2015-10-16T13:04:45.846Z,8.1
2015-10-16T13:05:45.787Z,8
2015-10-16T13:06:45.727Z,8.1
2015-10-16T13:07:45.684Z,8.1
2015-10-16T13:08:45.623Z,8.1
2015-10-16T13:09:45.564Z,8.1
2015-10-16T13:10:45.519Z,8.1
2015-10-16T13:11:45.459Z,8.1
2015-10-16T13:12:45.415Z,8
2015-10-16T13:13:45.356Z,8.1
2015-10-16T13:14:45.295Z,8.1
2015-10-16T13:15:45.237Z,8.1
2015-10-16T13:16:45.192Z,8
2015-10-16T13:17:45.132Z,8.1
2015-10-16T13:18:45.073Z,8.1
2015-10-16T13:19:45.029Z,8.2
2015-10-16T13:20:44.969Z,8.2
2015-10-16T13:21:44.925Z,8.2
2015-10-16T13:22:44.864Z,8.2
2015-10-16T13:23:44.805Z,8.1
2015-10-16T13:24:44.761Z,8
2015-10-16T13:25:44.701Z,8.1
2015-10-16T13:26:44.641Z,8.1
2015-10-16T13:27:44.594Z,8
2015-10-16T13:28:44.534Z,8.1
2015-10-16T13:29:44.475Z,8
2015-10-16T13:30:44.415Z,8.1
2015-10-16T13:31:44.371Z,8.2
2015-10-16T13:32:44.311Z,8.1
2015-10-16T13:33:44.267Z,8.1
2015-10-16T13:34:44.208Z,8.1
2015-10-16T13:35:44.147Z,8
2015-10-16T13:36:44.102Z,7.9
2015-10-16T13:37:44.048Z,7.9
2015-10-16T13:38:43.988Z,7.9
2015-10-16T13:39:43.929Z,7.9
2015-10-16T13:40:43.885Z,7.9
2015-10-16T13:41:43.871Z,7.8
2015-10-16T13:42:43.781Z,7.9
2015-10-16T13:43:43.705Z,7.9
2015-10-16T13:44:43.660Z,7.9
2015-10-16T13:45:43.601Z,7.9
2015-10-16T13:46:43.541Z,7.9
2015-10-16T13:47:43.498Z,7.9
2015-10-16T13:48:43.437Z,7.9
2015-10-16T13:49:43.378Z,7.9
2015-10-16T13:50:43.334Z,7.9
2015-10-16T13:51:43.274Z,7.9
2015-10-16T13:52:43.215Z,7.9
2015-10-16T13:53:43.170Z,7.9
2015-10-16T13:54:43.110Z,7.9
2015-10-16T13:55:43.051Z,8
2015-10-16T13:56:42.990Z,8
2015-10-16T13:57:42.956Z,7.9
2015-10-16T13:58:42.896Z,7.9
2015-10-16T13:59:42.837Z,7.9
2015-10-16T14:00:42.777Z,8
2015-10-16T14:01:42.717Z,8
2015-10-16T14:02:42.673Z,8
2015-10-16T14:03:42.613Z,8
2015-10-16T14:04:42.569Z,8
2015-10-16T14:05:42.509Z,8
2015-10-16T14:06:42.449Z,8.1
2015-10-16T14:07:42.405Z,8.1
2015-10-16T14:08:42.346Z,8
2015-10-16T14:09:42.286Z,8
2015-10-16T14:10:42.241Z,8.1
2015-10-16T14:11:42.182Z,8.1
2015-10-16T14:12:42.138Z,8.1
2015-10-16T14:13:42.078Z,8.1
2015-10-16T14:14:42.018Z,8.1